sensor_id;sensor_type;location;lat;lon;timestamp;P1;durP1;ratioP1;P2;durP2;ratioP2
75073;SDS011;63652;51.526;5.080;2023-08-12T00:01:47;17.90;;;9.80;;
75073;SDS011;63652;51.526;5.080;2023-08-12T00:04:12;18.15;;;8.90;;
75073;SDS011;63652;51.526;5.080;2023-08-12T00:06:40;16.38;;;9.23;;
75073;SDS011;63652;51.526;5.080;2023-08-12T00:09:06;14.90;;;9.10;;
75073;SDS011;63652;51.526;5.080;2023-08-12T00:11:32;18.05;;;8.43;;
75073;SDS011;63652;51.526;5.080;2023-08-12T00:13:58;17.38;;;9.07;;
75073;SDS011;63652;51.526;5.080;2023-08-12T00:16:23;14.50;;;8.82;;
75073;SDS011;63652;51.526;5.080;2023-08-12T00:18:49;17.08;;;9.32;;
75073;SDS011;63652;51.526;5.080;2023-08-12T00:21:14;19.42;;;8.80;;
75073;SDS011;63652;51.526;5.080;2023-08-12T00:23:40;12.70;;;7.55;;
75073;SDS011;63652;51.526;5.080;2023-08-12T00:26:06;17.85;;;8.52;;
75073;SDS011;63652;51.526;5.080;2023-08-12T00:28:31;14.60;;;7.90;;
75073;SDS011;63652;51.526;5.080;2023-08-12T00:30:57;17.05;;;8.88;;
75073;SDS011;63652;51.526;5.080;2023-08-12T00:33:23;13.88;;;7.90;;
75073;SDS011;63652;51.526;5.080;2023-08-12T00:35:49;14.77;;;9.30;;
75073;SDS011;63652;51.526;5.080;2023-08-12T00:38:14;15.70;;;9.27;;
75073;SDS011;63652;51.526;5.080;2023-08-12T00:40:39;15.43;;;9.05;;
75073;SDS011;63652;51.526;5.080;2023-08-12T00:43:05;15.23;;;8.70;;
75073;SDS011;63652;51.526;5.080;2023-08-12T00:45:30;13.60;;;7.75;;
75073;SDS011;63652;51.526;5.080;2023-08-12T00:47:56;15.85;;;7.82;;
75073;SDS011;63652;51.526;5.080;2023-08-12T00:50:21;15.88;;;7.65;;
75073;SDS011;63652;51.526;5.080;2023-08-12T00:52:47;13.13;;;7.35;;
75073;SDS011;63652;51.526;5.080;2023-08-12T00:55:13;13.40;;;7.55;;
75073;SDS011;63652;51.526;5.080;2023-08-12T00:57:39;13.73;;;7.88;;
75073;SDS011;63652;51.526;5.080;2023-08-12T01:00:05;14.82;;;7.72;;
75073;SDS011;63652;51.526;5.080;2023-08-12T01:02:31;15.60;;;7.20;;
75073;SDS011;63652;51.526;5.080;2023-08-12T01:04:57;14.45;;;8.10;;
75073;SDS011;63652;51.526;5.080;2023-08-12T01:07:22;14.23;;;8.18;;
75073;SDS011;63652;51.526;5.080;2023-08-12T01:09:48;12.63;;;7.35;;
75073;SDS011;63652;51.526;5.080;2023-08-12T01:12:15;16.52;;;7.28;;
75073;SDS011;63652;51.526;5.080;2023-08-12T01:17:32;11.07;;;6.90;;
75073;SDS011;63652;51.526;5.080;2023-08-12T01:19:59;14.18;;;7.00;;
75073;SDS011;63652;51.526;5.080;2023-08-12T01:22:25;14.38;;;7.45;;
75073;SDS011;63652;51.526;5.080;2023-08-12T01:24:52;13.45;;;7.22;;
75073;SDS011;63652;51.526;5.080;2023-08-12T01:27:18;12.73;;;7.20;;
75073;SDS011;63652;51.526;5.080;2023-08-12T01:29:45;13.07;;;6.97;;
75073;SDS011;63652;51.526;5.080;2023-08-12T01:37:42;11.50;;;7.05;;
75073;SDS011;63652;51.526;5.080;2023-08-12T01:40:08;14.20;;;7.00;;
75073;SDS011;63652;51.526;5.080;2023-08-12T01:42:34;11.27;;;6.40;;
75073;SDS011;63652;51.526;5.080;2023-08-12T01:45:00;12.50;;;6.60;;
75073;SDS011;63652;51.526;5.080;2023-08-12T01:47:26;13.00;;;6.95;;
75073;SDS011;63652;51.526;5.080;2023-08-12T01:49:52;10.25;;;5.95;;
75073;SDS011;63652;51.526;5.080;2023-08-12T01:52:18;16.40;;;6.40;;
75073;SDS011;63652;51.526;5.080;2023-08-12T01:54:43;12.95;;;7.22;;
75073;SDS011;63652;51.526;5.080;2023-08-12T01:57:09;13.50;;;8.18;;
75073;SDS011;63652;51.526;5.080;2023-08-12T01:59:35;19.85;;;9.68;;
75073;SDS011;63652;51.526;5.080;2023-08-12T02:02:00;15.35;;;6.97;;
75073;SDS011;63652;51.526;5.080;2023-08-12T02:04:26;14.05;;;7.60;;
75073;SDS011;63652;51.526;5.080;2023-08-12T02:06:52;13.18;;;7.30;;
75073;SDS011;63652;51.526;5.080;2023-08-12T02:09:18;19.20;;;8.00;;
75073;SDS011;63652;51.526;5.080;2023-08-12T02:11:44;11.93;;;7.28;;
75073;SDS011;63652;51.526;5.080;2023-08-12T02:14:10;16.92;;;7.03;;
75073;SDS011;63652;51.526;5.080;2023-08-12T02:16:35;13.30;;;6.97;;
75073;SDS011;63652;51.526;5.080;2023-08-12T02:19:00;12.80;;;6.65;;
75073;SDS011;63652;51.526;5.080;2023-08-12T02:21:26;11.68;;;6.47;;
75073;SDS011;63652;51.526;5.080;2023-08-12T02:23:51;10.57;;;5.88;;
75073;SDS011;63652;51.526;5.080;2023-08-12T02:26:17;12.98;;;6.47;;
75073;SDS011;63652;51.526;5.080;2023-08-12T02:28:42;14.00;;;6.70;;
75073;SDS011;63652;51.526;5.080;2023-08-12T02:31:07;14.48;;;7.65;;
75073;SDS011;63652;51.526;5.080;2023-08-12T02:33:33;12.48;;;6.97;;
75073;SDS011;63652;51.526;5.080;2023-08-12T02:35:58;16.27;;;7.25;;
75073;SDS011;63652;51.526;5.080;2023-08-12T02:38:24;14.50;;;7.03;;
75073;SDS011;63652;51.526;5.080;2023-08-12T02:40:49;10.65;;;6.45;;
75073;SDS011;63652;51.526;5.080;2023-08-12T02:43:16;15.45;;;6.53;;
75073;SDS011;63652;51.526;5.080;2023-08-12T02:45:42;13.55;;;6.65;;
75073;SDS011;63652;51.526;5.080;2023-08-12T02:48:09;14.35;;;5.85;;
75073;SDS011;63652;51.526;5.080;2023-08-12T02:50:35;11.40;;;6.07;;
75073;SDS011;63652;51.526;5.080;2023-08-12T02:53:00;11.25;;;5.93;;
75073;SDS011;63652;51.526;5.080;2023-08-12T02:55:25;10.68;;;5.50;;
75073;SDS011;63652;51.526;5.080;2023-08-12T02:57:51;12.02;;;5.53;;
75073;SDS011;63652;51.526;5.080;2023-08-12T03:00:16;15.85;;;5.50;;
75073;SDS011;63652;51.526;5.080;2023-08-12T03:02:45;14.88;;;5.30;;
75073;SDS011;63652;51.526;5.080;2023-08-12T03:05:10;10.35;;;5.15;;
75073;SDS011;63652;51.526;5.080;2023-08-12T03:07:36;8.80;;;5.18;;
75073;SDS011;63652;51.526;5.080;2023-08-12T03:10:01;9.15;;;5.22;;
75073;SDS011;63652;51.526;5.080;2023-08-12T03:12:26;10.70;;;5.45;;
75073;SDS011;63652;51.526;5.080;2023-08-12T03:14:52;11.77;;;5.75;;
75073;SDS011;63652;51.526;5.080;2023-08-12T03:17:17;12.38;;;6.25;;
75073;SDS011;63652;51.526;5.080;2023-08-12T03:19:43;12.68;;;5.72;;
75073;SDS011;63652;51.526;5.080;2023-08-12T03:22:08;8.55;;;4.95;;
75073;SDS011;63652;51.526;5.080;2023-08-12T03:24:34;12.27;;;4.95;;
75073;SDS011;63652;51.526;5.080;2023-08-12T03:26:59;8.15;;;4.75;;
75073;SDS011;63652;51.526;5.080;2023-08-12T03:29:25;11.27;;;4.68;;
75073;SDS011;63652;51.526;5.080;2023-08-12T03:31:50;10.75;;;6.00;;
75073;SDS011;63652;51.526;5.080;2023-08-12T03:34:15;10.68;;;5.53;;
75073;SDS011;63652;51.526;5.080;2023-08-12T03:36:41;12.00;;;5.53;;
75073;SDS011;63652;51.526;5.080;2023-08-12T03:39:06;10.25;;;4.95;;
75073;SDS011;63652;51.526;5.080;2023-08-12T03:41:32;11.25;;;4.88;;
75073;SDS011;63652;51.526;5.080;2023-08-12T03:43:57;10.00;;;5.63;;
75073;SDS011;63652;51.526;5.080;2023-08-12T03:46:23;12.80;;;5.53;;
75073;SDS011;63652;51.526;5.080;2023-08-12T03:48:48;10.88;;;5.15;;
75073;SDS011;63652;51.526;5.080;2023-08-12T03:51:14;9.35;;;4.43;;
75073;SDS011;63652;51.526;5.080;2023-08-12T03:53:39;11.15;;;4.65;;
75073;SDS011;63652;51.526;5.080;2023-08-12T03:56:04;9.18;;;4.75;;
75073;SDS011;63652;51.526;5.080;2023-08-12T03:58:30;9.07;;;4.93;;
75073;SDS011;63652;51.526;5.080;2023-08-12T04:00:55;7.97;;;4.65;;
75073;SDS011;63652;51.526;5.080;2023-08-12T04:03:21;10.32;;;5.22;;
75073;SDS011;63652;51.526;5.080;2023-08-12T04:05:49;11.98;;;4.80;;
75073;SDS011;63652;51.526;5.080;2023-08-12T04:08:17;8.38;;;4.55;;
75073;SDS011;63652;51.526;5.080;2023-08-12T04:10:44;9.77;;;5.20;;
75073;SDS011;63652;51.526;5.080;2023-08-12T04:13:10;11.10;;;5.30;;
75073;SDS011;63652;51.526;5.080;2023-08-12T04:15:36;9.55;;;4.70;;
75073;SDS011;63652;51.526;5.080;2023-08-12T04:18:01;9.73;;;5.10;;
75073;SDS011;63652;51.526;5.080;2023-08-12T04:20:27;9.32;;;4.03;;
75073;SDS011;63652;51.526;5.080;2023-08-12T04:22:52;8.48;;;4.80;;
75073;SDS011;63652;51.526;5.080;2023-08-12T04:25:17;9.00;;;4.93;;
75073;SDS011;63652;51.526;5.080;2023-08-12T04:27:43;7.97;;;5.15;;
75073;SDS011;63652;51.526;5.080;2023-08-12T04:30:09;7.38;;;4.60;;
75073;SDS011;63652;51.526;5.080;2023-08-12T04:32:34;12.80;;;5.03;;
75073;SDS011;63652;51.526;5.080;2023-08-12T04:35:00;16.50;;;5.85;;
75073;SDS011;63652;51.526;5.080;2023-08-12T04:37:25;14.45;;;5.53;;
75073;SDS011;63652;51.526;5.080;2023-08-12T04:39:51;10.00;;;5.10;;
75073;SDS011;63652;51.526;5.080;2023-08-12T04:42:16;13.25;;;6.30;;
75073;SDS011;63652;51.526;5.080;2023-08-12T04:44:42;10.32;;;5.47;;
75073;SDS011;63652;51.526;5.080;2023-08-12T04:47:07;11.55;;;5.72;;
75073;SDS011;63652;51.526;5.080;2023-08-12T04:49:32;9.85;;;5.32;;
75073;SDS011;63652;51.526;5.080;2023-08-12T04:51:58;9.57;;;5.53;;
75073;SDS011;63652;51.526;5.080;2023-08-12T04:54:23;10.25;;;5.75;;
75073;SDS011;63652;51.526;5.080;2023-08-12T04:56:49;10.13;;;5.28;;
75073;SDS011;63652;51.526;5.080;2023-08-12T04:59:14;12.93;;;5.57;;
75073;SDS011;63652;51.526;5.080;2023-08-12T05:01:43;12.60;;;5.25;;
75073;SDS011;63652;51.526;5.080;2023-08-12T05:04:08;10.80;;;5.60;;
75073;SDS011;63652;51.526;5.080;2023-08-12T05:06:34;11.07;;;5.60;;
75073;SDS011;63652;51.526;5.080;2023-08-12T05:08:59;9.75;;;4.50;;
75073;SDS011;63652;51.526;5.080;2023-08-12T05:11:25;9.00;;;4.40;;
75073;SDS011;63652;51.526;5.080;2023-08-12T05:13:50;11.25;;;4.85;;
75073;SDS011;63652;51.526;5.080;2023-08-12T05:16:16;9.45;;;4.85;;
75073;SDS011;63652;51.526;5.080;2023-08-12T05:18:41;10.30;;;4.82;;
75073;SDS011;63652;51.526;5.080;2023-08-12T05:21:06;10.93;;;5.20;;
75073;SDS011;63652;51.526;5.080;2023-08-12T05:23:32;10.63;;;4.78;;
75073;SDS011;63652;51.526;5.080;2023-08-12T05:25:57;8.45;;;4.75;;
75073;SDS011;63652;51.526;5.080;2023-08-12T05:28:23;10.07;;;4.93;;
75073;SDS011;63652;51.526;5.080;2023-08-12T05:30:48;10.48;;;5.13;;
75073;SDS011;63652;51.526;5.080;2023-08-12T05:33:13;10.38;;;4.82;;
75073;SDS011;63652;51.526;5.080;2023-08-12T05:35:39;8.65;;;4.93;;
75073;SDS011;63652;51.526;5.080;2023-08-12T05:38:04;7.13;;;4.07;;
75073;SDS011;63652;51.526;5.080;2023-08-12T05:40:30;7.78;;;4.47;;
75073;SDS011;63652;51.526;5.080;2023-08-12T05:42:55;8.43;;;4.82;;
75073;SDS011;63652;51.526;5.080;2023-08-12T05:45:20;7.00;;;4.28;;
75073;SDS011;63652;51.526;5.080;2023-08-12T05:47:46;7.63;;;4.57;;
75073;SDS011;63652;51.526;5.080;2023-08-12T05:50:11;6.30;;;3.55;;
75073;SDS011;63652;51.526;5.080;2023-08-12T05:52:37;7.47;;;3.60;;
75073;SDS011;63652;51.526;5.080;2023-08-12T05:55:02;7.03;;;3.78;;
75073;SDS011;63652;51.526;5.080;2023-08-12T05:57:28;7.32;;;3.72;;
75073;SDS011;63652;51.526;5.080;2023-08-12T05:59:54;7.28;;;4.47;;
75073;SDS011;63652;51.526;5.080;2023-08-12T06:02:19;7.65;;;4.15;;
75073;SDS011;63652;51.526;5.080;2023-08-12T06:04:45;7.88;;;3.90;;
75073;SDS011;63652;51.526;5.080;2023-08-12T06:07:10;7.72;;;3.70;;
75073;SDS011;63652;51.526;5.080;2023-08-12T06:09:36;9.05;;;3.63;;
75073;SDS011;63652;51.526;5.080;2023-08-12T06:12:01;6.70;;;3.97;;
75073;SDS011;63652;51.526;5.080;2023-08-12T06:14:27;6.60;;;3.85;;
75073;SDS011;63652;51.526;5.080;2023-08-12T06:16:53;7.10;;;3.42;;
75073;SDS011;63652;51.526;5.080;2023-08-12T06:19:18;7.00;;;4.05;;
75073;SDS011;63652;51.526;5.080;2023-08-12T06:21:44;8.65;;;4.30;;
75073;SDS011;63652;51.526;5.080;2023-08-12T06:24:09;7.03;;;3.58;;
75073;SDS011;63652;51.526;5.080;2023-08-12T06:26:34;6.45;;;3.17;;
75073;SDS011;63652;51.526;5.080;2023-08-12T06:29:00;6.47;;;4.10;;
75073;SDS011;63652;51.526;5.080;2023-08-12T06:31:25;6.07;;;3.28;;
75073;SDS011;63652;51.526;5.080;2023-08-12T06:33:51;7.40;;;4.05;;
75073;SDS011;63652;51.526;5.080;2023-08-12T06:36:16;7.47;;;3.35;;
75073;SDS011;63652;51.526;5.080;2023-08-12T06:38:42;6.20;;;3.85;;
75073;SDS011;63652;51.526;5.080;2023-08-12T06:41:07;5.88;;;3.35;;
75073;SDS011;63652;51.526;5.080;2023-08-12T06:43:33;5.80;;;3.50;;
75073;SDS011;63652;51.526;5.080;2023-08-12T06:45:58;6.18;;;3.40;;
75073;SDS011;63652;51.526;5.080;2023-08-12T06:48:24;7.57;;;3.88;;
75073;SDS011;63652;51.526;5.080;2023-08-12T06:50:53;7.75;;;4.13;;
75073;SDS011;63652;51.526;5.080;2023-08-12T06:53:20;8.60;;;4.03;;
75073;SDS011;63652;51.526;5.080;2023-08-12T06:55:45;8.25;;;4.45;;
75073;SDS011;63652;51.526;5.080;2023-08-12T06:58:13;8.25;;;4.18;;
75073;SDS011;63652;51.526;5.080;2023-08-12T07:00:39;7.35;;;4.00;;
75073;SDS011;63652;51.526;5.080;2023-08-12T07:03:04;6.10;;;4.10;;
75073;SDS011;63652;51.526;5.080;2023-08-12T07:05:30;6.65;;;3.75;;
75073;SDS011;63652;51.526;5.080;2023-08-12T07:07:55;6.40;;;3.95;;
75073;SDS011;63652;51.526;5.080;2023-08-12T07:10:21;6.82;;;4.30;;
75073;SDS011;63652;51.526;5.080;2023-08-12T07:12:49;8.70;;;4.90;;
75073;SDS011;63652;51.526;5.080;2023-08-12T07:15:15;7.75;;;4.15;;
75073;SDS011;63652;51.526;5.080;2023-08-12T07:17:40;5.43;;;3.72;;
75073;SDS011;63652;51.526;5.080;2023-08-12T07:20:06;5.93;;;3.50;;
75073;SDS011;63652;51.526;5.080;2023-08-12T07:22:32;7.30;;;3.85;;
75073;SDS011;63652;51.526;5.080;2023-08-12T07:24:57;4.97;;;3.60;;
75073;SDS011;63652;51.526;5.080;2023-08-12T07:27:25;5.93;;;3.83;;
75073;SDS011;63652;51.526;5.080;2023-08-12T07:29:51;5.75;;;3.80;;
75073;SDS011;63652;51.526;5.080;2023-08-12T07:32:16;5.32;;;3.60;;
75073;SDS011;63652;51.526;5.080;2023-08-12T07:34:41;5.68;;;3.20;;
75073;SDS011;63652;51.526;5.080;2023-08-12T07:37:07;5.47;;;3.55;;
75073;SDS011;63652;51.526;5.080;2023-08-12T07:39:32;4.72;;;2.97;;
75073;SDS011;63652;51.526;5.080;2023-08-12T07:41:58;5.13;;;3.55;;
75073;SDS011;63652;51.526;5.080;2023-08-12T07:44:23;5.93;;;3.92;;
75073;SDS011;63652;51.526;5.080;2023-08-12T07:46:48;5.70;;;3.88;;
75073;SDS011;63652;51.526;5.080;2023-08-12T07:49:15;5.78;;;3.78;;
75073;SDS011;63652;51.526;5.080;2023-08-12T07:51:41;7.07;;;3.78;;
75073;SDS011;63652;51.526;5.080;2023-08-12T07:54:06;5.57;;;3.92;;
75073;SDS011;63652;51.526;5.080;2023-08-12T07:56:32;6.00;;;4.10;;
75073;SDS011;63652;51.526;5.080;2023-08-12T07:58:57;5.78;;;4.60;;
75073;SDS011;63652;51.526;5.080;2023-08-12T08:01:23;6.43;;;4.72;;
75073;SDS011;63652;51.526;5.080;2023-08-12T08:03:48;8.90;;;5.38;;
75073;SDS011;63652;51.526;5.080;2023-08-12T08:06:13;7.63;;;5.55;;
75073;SDS011;63652;51.526;5.080;2023-08-12T08:08:39;8.57;;;5.85;;
75073;SDS011;63652;51.526;5.080;2023-08-12T08:11:04;9.32;;;6.25;;
75073;SDS011;63652;51.526;5.080;2023-08-12T08:13:30;8.38;;;5.50;;
75073;SDS011;63652;51.526;5.080;2023-08-12T08:15:55;8.23;;;5.25;;
75073;SDS011;63652;51.526;5.080;2023-08-12T08:18:21;8.38;;;5.97;;
75073;SDS011;63652;51.526;5.080;2023-08-12T08:20:46;10.32;;;6.68;;
75073;SDS011;63652;51.526;5.080;2023-08-12T08:23:12;8.40;;;5.68;;
75073;SDS011;63652;51.526;5.080;2023-08-12T08:25:37;8.85;;;4.75;;
75073;SDS011;63652;51.526;5.080;2023-08-12T08:28:03;6.47;;;4.72;;
75073;SDS011;63652;51.526;5.080;2023-08-12T08:30:29;4.88;;;3.05;;
75073;SDS011;63652;51.526;5.080;2023-08-12T08:32:54;3.97;;;2.88;;
75073;SDS011;63652;51.526;5.080;2023-08-12T08:35:19;4.30;;;2.25;;
75073;SDS011;63652;51.526;5.080;2023-08-12T08:37:45;3.15;;;1.80;;
75073;SDS011;63652;51.526;5.080;2023-08-12T08:40:10;3.45;;;1.67;;
75073;SDS011;63652;51.526;5.080;2023-08-12T08:42:37;3.20;;;1.05;;
75073;SDS011;63652;51.526;5.080;2023-08-12T08:45:03;2.97;;;1.10;;
75073;SDS011;63652;51.526;5.080;2023-08-12T08:47:30;3.95;;;1.20;;
75073;SDS011;63652;51.526;5.080;2023-08-12T08:49:56;2.97;;;1.08;;
75073;SDS011;63652;51.526;5.080;2023-08-12T08:52:25;3.60;;;0.90;;
75073;SDS011;63652;51.526;5.080;2023-08-12T08:54:51;1.80;;;0.88;;
75073;SDS011;63652;51.526;5.080;2023-08-12T08:57:17;3.83;;;0.98;;
75073;SDS011;63652;51.526;5.080;2023-08-12T08:59:44;2.85;;;1.10;;
75073;SDS011;63652;51.526;5.080;2023-08-12T09:02:16;2.85;;;1.15;;
75073;SDS011;63652;51.526;5.080;2023-08-12T09:04:46;3.70;;;0.77;;
75073;SDS011;63652;51.526;5.080;2023-08-12T09:07:11;3.05;;;1.25;;
75073;SDS011;63652;51.526;5.080;2023-08-12T09:09:39;3.90;;;0.98;;
75073;SDS011;63652;51.526;5.080;2023-08-12T09:12:14;3.47;;;0.95;;
75073;SDS011;63652;51.526;5.080;2023-08-12T09:14:40;3.05;;;0.77;;
75073;SDS011;63652;51.526;5.080;2023-08-12T09:17:07;4.47;;;1.55;;
75073;SDS011;63652;51.526;5.080;2023-08-12T09:19:32;5.50;;;1.65;;
75073;SDS011;63652;51.526;5.080;2023-08-12T09:21:58;3.47;;;1.10;;
75073;SDS011;63652;51.526;5.080;2023-08-12T09:24:26;6.55;;;1.38;;
75073;SDS011;63652;51.526;5.080;2023-08-12T09:26:55;4.70;;;0.98;;
75073;SDS011;63652;51.526;5.080;2023-08-12T09:29:29;7.18;;;1.30;;
75073;SDS011;63652;51.526;5.080;2023-08-12T09:32:04;3.13;;;0.80;;
75073;SDS011;63652;51.526;5.080;2023-08-12T09:34:31;5.53;;;1.20;;
75073;SDS011;63652;51.526;5.080;2023-08-12T09:36:56;7.00;;;1.30;;
75073;SDS011;63652;51.526;5.080;2023-08-12T09:39:22;6.30;;;1.30;;
75073;SDS011;63652;51.526;5.080;2023-08-12T09:41:47;6.40;;;1.23;;
75073;SDS011;63652;51.526;5.080;2023-08-12T09:44:15;5.28;;;1.15;;
75073;SDS011;63652;51.526;5.080;2023-08-12T09:46:40;9.20;;;1.40;;
75073;SDS011;63652;51.526;5.080;2023-08-12T09:49:06;4.22;;;1.17;;
75073;SDS011;63652;51.526;5.080;2023-08-12T09:51:37;6.20;;;1.33;;
75073;SDS011;63652;51.526;5.080;2023-08-12T09:54:05;3.70;;;1.10;;
75073;SDS011;63652;51.526;5.080;2023-08-12T09:56:32;4.53;;;1.10;;
75073;SDS011;63652;51.526;5.080;2023-08-12T09:58:59;6.55;;;1.75;;
75073;SDS011;63652;51.526;5.080;2023-08-12T10:01:25;5.28;;;1.20;;
75073;SDS011;63652;51.526;5.080;2023-08-12T10:03:51;3.75;;;0.93;;
75073;SDS011;63652;51.526;5.080;2023-08-12T10:06:17;5.75;;;1.30;;
75073;SDS011;63652;51.526;5.080;2023-08-12T10:08:43;5.82;;;1.00;;
75073;SDS011;63652;51.526;5.080;2023-08-12T10:11:10;10.18;;;1.50;;
75073;SDS011;63652;51.526;5.080;2023-08-12T10:13:36;4.75;;;1.20;;
75073;SDS011;63652;51.526;5.080;2023-08-12T10:16:02;6.55;;;1.65;;
75073;SDS011;63652;51.526;5.080;2023-08-12T10:18:28;2.15;;;0.80;;
75073;SDS011;63652;51.526;5.080;2023-08-12T10:20:56;5.80;;;1.13;;
75073;SDS011;63652;51.526;5.080;2023-08-12T10:23:23;4.13;;;1.48;;
75073;SDS011;63652;51.526;5.080;2023-08-12T10:25:49;6.05;;;1.08;;
75073;SDS011;63652;51.526;5.080;2023-08-12T10:28:18;3.40;;;0.98;;
75073;SDS011;63652;51.526;5.080;2023-08-12T10:30:44;3.60;;;1.10;;
75073;SDS011;63652;51.526;5.080;2023-08-12T10:33:10;3.67;;;1.65;;
75073;SDS011;63652;51.526;5.080;2023-08-12T10:35:40;5.85;;;1.00;;
75073;SDS011;63652;51.526;5.080;2023-08-12T10:38:12;2.88;;;0.90;;
75073;SDS011;63652;51.526;5.080;2023-08-12T10:40:38;8.68;;;1.30;;
75073;SDS011;63652;51.526;5.080;2023-08-12T10:43:04;6.45;;;1.60;;
75073;SDS011;63652;51.526;5.080;2023-08-12T10:45:42;6.38;;;1.17;;
75073;SDS011;63652;51.526;5.080;2023-08-12T10:48:11;4.75;;;1.20;;
75073;SDS011;63652;51.526;5.080;2023-08-12T10:50:45;5.30;;;1.50;;
75073;SDS011;63652;51.526;5.080;2023-08-12T10:53:20;4.95;;;0.93;;
75073;SDS011;63652;51.526;5.080;2023-08-12T10:56:02;5.28;;;1.52;;
75073;SDS011;63652;51.526;5.080;2023-08-12T11:00:57;4.53;;;1.05;;
75073;SDS011;63652;51.526;5.080;2023-08-12T11:03:23;4.18;;;1.23;;
75073;SDS011;63652;51.526;5.080;2023-08-12T11:05:48;4.80;;;1.27;;
75073;SDS011;63652;51.526;5.080;2023-08-12T11:08:14;3.50;;;1.10;;
75073;SDS011;63652;51.526;5.080;2023-08-12T11:10:39;4.50;;;1.40;;
75073;SDS011;63652;51.526;5.080;2023-08-12T11:13:05;3.58;;;1.20;;
75073;SDS011;63652;51.526;5.080;2023-08-12T11:18:05;5.32;;;1.02;;
75073;SDS011;63652;51.526;5.080;2023-08-12T11:20:36;5.63;;;2.03;;
75073;SDS011;63652;51.526;5.080;2023-08-12T11:23:05;9.60;;;2.30;;
75073;SDS011;63652;51.526;5.080;2023-08-12T11:25:32;12.95;;;1.55;;
75073;SDS011;63652;51.526;5.080;2023-08-12T11:27:59;5.97;;;1.52;;
75073;SDS011;63652;51.526;5.080;2023-08-12T11:30:24;4.55;;;1.58;;
75073;SDS011;63652;51.526;5.080;2023-08-12T11:32:51;5.20;;;1.50;;
75073;SDS011;63652;51.526;5.080;2023-08-12T11:35:18;5.70;;;1.85;;
75073;SDS011;63652;51.526;5.080;2023-08-12T11:37:46;4.82;;;1.60;;
75073;SDS011;63652;51.526;5.080;2023-08-12T11:40:13;6.68;;;1.75;;
75073;SDS011;63652;51.526;5.080;2023-08-12T11:42:40;7.68;;;2.13;;
75073;SDS011;63652;51.526;5.080;2023-08-12T11:45:07;2.85;;;1.27;;
75073;SDS011;63652;51.526;5.080;2023-08-12T11:47:33;3.65;;;1.95;;
75073;SDS011;63652;51.526;5.080;2023-08-12T11:50:03;5.75;;;2.17;;
75073;SDS011;63652;51.526;5.080;2023-08-12T11:52:32;5.80;;;2.17;;
75073;SDS011;63652;51.526;5.080;2023-08-12T11:54:58;7.47;;;1.67;;
75073;SDS011;63652;51.526;5.080;2023-08-12T11:57:24;5.97;;;1.60;;
75073;SDS011;63652;51.526;5.080;2023-08-12T11:59:51;4.47;;;1.52;;
75073;SDS011;63652;51.526;5.080;2023-08-12T12:02:16;5.88;;;1.30;;
75073;SDS011;63652;51.526;5.080;2023-08-12T12:04:42;9.38;;;1.77;;
75073;SDS011;63652;51.526;5.080;2023-08-12T12:07:24;7.22;;;1.42;;
75073;SDS011;63652;51.526;5.080;2023-08-12T12:09:54;4.82;;;1.40;;
75073;SDS011;63652;51.526;5.080;2023-08-12T12:12:23;5.45;;;1.15;;
75073;SDS011;63652;51.526;5.080;2023-08-12T12:14:52;5.13;;;1.45;;
75073;SDS011;63652;51.526;5.080;2023-08-12T12:17:24;8.27;;;1.80;;
75073;SDS011;63652;51.526;5.080;2023-08-12T12:19:54;5.20;;;1.63;;
75073;SDS011;63652;51.526;5.080;2023-08-12T12:22:20;5.32;;;1.75;;
75073;SDS011;63652;51.526;5.080;2023-08-12T12:24:54;5.63;;;1.38;;
75073;SDS011;63652;51.526;5.080;2023-08-12T12:27:19;6.20;;;2.33;;
75073;SDS011;63652;51.526;5.080;2023-08-12T12:29:45;4.43;;;1.33;;
75073;SDS011;63652;51.526;5.080;2023-08-12T12:32:11;4.13;;;1.50;;
75073;SDS011;63652;51.526;5.080;2023-08-12T12:34:36;7.35;;;1.33;;
75073;SDS011;63652;51.526;5.080;2023-08-12T12:37:02;6.07;;;2.08;;
75073;SDS011;63652;51.526;5.080;2023-08-12T12:39:27;5.97;;;2.22;;
75073;SDS011;63652;51.526;5.080;2023-08-12T12:41:53;6.07;;;1.30;;
75073;SDS011;63652;51.526;5.080;2023-08-12T12:44:18;5.03;;;1.95;;
75073;SDS011;63652;51.526;5.080;2023-08-12T12:46:44;5.53;;;1.88;;
75073;SDS011;63652;51.526;5.080;2023-08-12T12:49:09;3.97;;;1.70;;
75073;SDS011;63652;51.526;5.080;2023-08-12T12:51:35;8.68;;;2.38;;
75073;SDS011;63652;51.526;5.080;2023-08-12T12:54:00;8.40;;;1.88;;
75073;SDS011;63652;51.526;5.080;2023-08-12T12:56:26;7.10;;;2.20;;
75073;SDS011;63652;51.526;5.080;2023-08-12T12:58:51;5.22;;;1.85;;
75073;SDS011;63652;51.526;5.080;2023-08-12T13:01:16;5.38;;;1.98;;
75073;SDS011;63652;51.526;5.080;2023-08-12T13:03:42;8.50;;;2.10;;
75073;SDS011;63652;51.526;5.080;2023-08-12T13:06:07;6.15;;;2.28;;
75073;SDS011;63652;51.526;5.080;2023-08-12T13:08:33;4.00;;;1.60;;
75073;SDS011;63652;51.526;5.080;2023-08-12T13:10:58;7.22;;;2.78;;
75073;SDS011;63652;51.526;5.080;2023-08-12T13:13:24;5.97;;;1.50;;
75073;SDS011;63652;51.526;5.080;2023-08-12T13:15:49;5.22;;;1.63;;
75073;SDS011;63652;51.526;5.080;2023-08-12T13:18:16;7.13;;;2.05;;
75073;SDS011;63652;51.526;5.080;2023-08-12T13:20:41;7.80;;;2.22;;
75073;SDS011;63652;51.526;5.080;2023-08-12T13:23:07;6.82;;;1.98;;
75073;SDS011;63652;51.526;5.080;2023-08-12T13:25:32;5.30;;;2.15;;
75073;SDS011;63652;51.526;5.080;2023-08-12T13:27:58;3.38;;;1.58;;
75073;SDS011;63652;51.526;5.080;2023-08-12T13:30:24;4.88;;;1.40;;
75073;SDS011;63652;51.526;5.080;2023-08-12T13:32:50;6.03;;;2.00;;
75073;SDS011;63652;51.526;5.080;2023-08-12T13:35:16;6.25;;;1.88;;
75073;SDS011;63652;51.526;5.080;2023-08-12T13:37:42;5.25;;;1.80;;
75073;SDS011;63652;51.526;5.080;2023-08-12T13:40:07;5.53;;;1.83;;
75073;SDS011;63652;51.526;5.080;2023-08-12T13:42:34;5.55;;;2.13;;
75073;SDS011;63652;51.526;5.080;2023-08-12T13:44:59;6.32;;;2.15;;
75073;SDS011;63652;51.526;5.080;2023-08-12T13:47:24;8.80;;;2.45;;
75073;SDS011;63652;51.526;5.080;2023-08-12T13:49:50;7.28;;;2.58;;
75073;SDS011;63652;51.526;5.080;2023-08-12T13:52:16;10.90;;;3.00;;
75073;SDS011;63652;51.526;5.080;2023-08-12T13:54:42;6.82;;;2.78;;
75073;SDS011;63652;51.526;5.080;2023-08-12T13:57:07;3.80;;;2.83;;
75073;SDS011;63652;51.526;5.080;2023-08-12T13:59:33;4.97;;;2.63;;
75073;SDS011;63652;51.526;5.080;2023-08-12T14:01:58;10.80;;;2.35;;
75073;SDS011;63652;51.526;5.080;2023-08-12T14:04:23;5.25;;;2.47;;
75073;SDS011;63652;51.526;5.080;2023-08-12T14:06:49;5.50;;;2.63;;
75073;SDS011;63652;51.526;5.080;2023-08-12T14:09:14;6.85;;;3.30;;
75073;SDS011;63652;51.526;5.080;2023-08-12T14:11:42;7.95;;;3.13;;
75073;SDS011;63652;51.526;5.080;2023-08-12T14:14:07;9.52;;;3.40;;
75073;SDS011;63652;51.526;5.080;2023-08-12T14:16:33;4.40;;;2.83;;
75073;SDS011;63652;51.526;5.080;2023-08-12T14:18:58;6.47;;;2.90;;
75073;SDS011;63652;51.526;5.080;2023-08-12T14:21:23;6.28;;;3.08;;
75073;SDS011;63652;51.526;5.080;2023-08-12T14:23:49;6.15;;;3.13;;
75073;SDS011;63652;51.526;5.080;2023-08-12T14:26:14;8.55;;;4.05;;
75073;SDS011;63652;51.526;5.080;2023-08-12T14:28:40;6.28;;;2.95;;
75073;SDS011;63652;51.526;5.080;2023-08-12T14:31:05;7.15;;;4.00;;
75073;SDS011;63652;51.526;5.080;2023-08-12T14:33:30;8.23;;;3.35;;
75073;SDS011;63652;51.526;5.080;2023-08-12T14:35:59;7.95;;;3.20;;
75073;SDS011;63652;51.526;5.080;2023-08-12T14:38:24;6.65;;;2.85;;
75073;SDS011;63652;51.526;5.080;2023-08-12T14:40:50;6.43;;;3.88;;
75073;SDS011;63652;51.526;5.080;2023-08-12T14:43:15;5.50;;;3.20;;
75073;SDS011;63652;51.526;5.080;2023-08-12T14:45:42;10.23;;;3.85;;
75073;SDS011;63652;51.526;5.080;2023-08-12T14:48:09;7.55;;;4.25;;
75073;SDS011;63652;51.526;5.080;2023-08-12T14:50:36;5.97;;;3.53;;